Time;durP1;ratioP1;P1;durP2;ratioP2;P2;SDS_P1;SDS_P2;PMS_P1;PMS_P2;Temp;Humidity;BMP_temperature;BMP_pressure;BME280_temperature;BME280_humidity;BME280_pressure;Samples;Min_cycle;Max_cycle;Signal;HPM_P1;HPM_P2
2023/07/01 00:01:48;;;;;;;5.10;4.27;;;;;;;;;;5074509;28;20933;-68
2023/07/01 00:04:15;;;;;;;4.40;4.00;;;;;;;;;;5074613;28;20438;-68
2023/07/01 00:06:42;;;;;;;5.10;4.53;;;;;;;;;;5075138;28;20442;-68
2023/07/01 00:09:10;;;;;;;5.73;4.43;;;;;;;;;;5074155;28;20448;-68
2023/07/01 00:11:37;;;;;;;6.70;3.70;;;;;;;;;;5074491;28;20842;-68
2023/07/01 00:14:06;;;;;;;5.93;5.00;;;;;;;;;;5074425;28;20441;-68
2023/07/01 00:16:33;;;;;;;6.73;4.20;;;;;;;;;;5074453;28;20442;-67
2023/07/01 00:19:00;;;;;;;6.70;4.43;;;;;;;;;;5074354;28;20442;-68
2023/07/01 00:21:28;;;;;;;5.20;4.70;;;;;;;;;;5074132;28;20489;-68
2023/07/01 00:23:55;;;;;;;7.93;5.03;;;;;;;;;;5074181;28;20458;-67
2023/07/01 00:26:22;;;;;;;11.10;5.20;;;;;;;;;;5074194;28;20450;-68
2023/07/01 00:28:49;;;;;;;6.17;5.50;;;;;;;;;;5073903;28;20937;-68
2023/07/01 00:31:18;;;;;;;4.93;4.53;;;;;;;;;;5074075;28;20921;-68
2023/07/01 00:33:45;;;;;;;7.10;4.20;;;;;;;;;;5074116;28;20439;-67
2023/07/01 00:36:12;;;;;;;4.73;4.10;;;;;;;;;;5073768;28;20449;-68
2023/07/01 00:38:39;;;;;;;7.97;4.03;;;;;;;;;;5074460;28;20450;-67
2023/07/01 00:41:06;;;;;;;7.43;4.67;;;;;;;;;;5073994;28;20443;-68
2023/07/01 00:43:33;;;;;;;6.00;4.20;;;;;;;;;;5073498;28;20453;-68
2023/07/01 00:46:01;;;;;;;5.00;4.50;;;;;;;;;;5073880;28;20450;-68
2023/07/01 00:48:31;;;;;;;11.50;4.37;;;;;;;;;;5073739;28;20440;-67
2023/07/01 00:50:58;;;;;;;7.67;4.53;;;;;;;;;;5073971;28;20444;-68
2023/07/01 00:53:25;;;;;;;5.87;4.40;;;;;;;;;;5073259;28;20476;-68
2023/07/01 00:55:53;;;;;;;5.70;4.63;;;;;;;;;;5073913;28;20521;-68
2023/07/01 00:58:20;;;;;;;6.10;4.27;;;;;;;;;;5073544;28;20449;-68
2023/07/01 01:00:48;;;;;;;6.47;4.63;;;;;;;;;;5073909;28;20438;-68
2023/07/01 01:03:22;;;;;;;4.20;3.80;;;;;;;;;;5073359;28;20462;-67
2023/07/01 01:05:54;;;;;;;4.80;4.30;;;;;;;;;;5073599;28;20438;-68
2023/07/01 01:08:23;;;;;;;5.13;4.27;;;;;;;;;;5073580;28;20805;-68
2023/07/01 01:10:51;;;;;;;5.80;4.03;;;;;;;;;;5073573;28;20466;-68
2023/07/01 01:13:19;;;;;;;6.63;4.90;;;;;;;;;;5073321;28;20485;-68
2023/07/01 01:15:47;;;;;;;6.63;4.10;;;;;;;;;;5073453;28;20434;-68
2023/07/01 01:18:16;;;;;;;4.67;4.00;;;;;;;;;;5073338;28;20442;-68
2023/07/01 01:20:44;;;;;;;6.67;4.53;;;;;;;;;;5073189;28;20464;-68
2023/07/01 01:23:15;;;;;;;7.40;4.60;;;;;;;;;;5072939;28;20454;-68
2023/07/01 01:25:45;;;;;;;4.70;3.93;;;;;;;;;;5073800;28;20429;-68
2023/07/01 01:28:13;;;;;;;5.30;4.17;;;;;;;;;;5072903;28;20447;-68
2023/07/01 01:30:40;;;;;;;5.23;3.93;;;;;;;;;;5073303;28;20451;-67
2023/07/01 01:33:08;;;;;;;5.63;4.30;;;;;;;;;;5073134;28;20477;-68
2023/07/01 01:35:35;;;;;;;6.17;4.20;;;;;;;;;;5073262;28;20466;-68
2023/07/01 01:38:06;;;;;;;5.90;4.60;;;;;;;;;;5072847;28;20452;-68
2023/07/01 01:40:35;;;;;;;5.70;4.50;;;;;;;;;;5073267;28;20779;-68
2023/07/01 01:43:07;;;;;;;7.07;3.97;;;;;;;;;;5073114;28;20450;-68
2023/07/01 01:45:36;;;;;;;9.07;4.43;;;;;;;;;;5073270;28;20432;-67
2023/07/01 01:48:04;;;;;;;7.57;4.10;;;;;;;;;;5072982;28;20444;-69
2023/07/01 01:50:33;;;;;;;6.30;4.27;;;;;;;;;;5072983;28;20445;-68
2023/07/01 01:53:01;;;;;;;6.87;4.40;;;;;;;;;;5072674;28;20483;-68
2023/07/01 01:55:29;;;;;;;6.90;4.07;;;;;;;;;;5072976;28;20860;-67
2023/07/01 01:57:56;;;;;;;6.03;4.20;;;;;;;;;;5072799;28;20945;-67
2023/07/01 02:00:24;;;;;;;5.20;4.23;;;;;;;;;;5072944;28;20522;-68
2023/07/01 02:02:52;;;;;;;6.73;3.77;;;;;;;;;;5073500;28;20454;-68
2023/07/01 02:05:20;;;;;;;5.60;4.30;;;;;;;;;;5072891;28;20788;-68
2023/07/01 02:07:47;;;;;;;5.70;4.33;;;;;;;;;;5073081;28;20490;-68
2023/07/01 02:10:14;;;;;;;5.30;3.57;;;;;;;;;;5072821;28;20455;-68
2023/07/01 02:12:41;;;;;;;10.20;4.30;;;;;;;;;;5072844;28;20479;-67
2023/07/01 02:15:09;;;;;;;4.40;3.60;;;;;;;;;;5072505;28;20465;-68
2023/07/01 02:17:36;;;;;;;8.00;4.30;;;;;;;;;;5073454;28;20500;-68
2023/07/01 02:20:05;;;;;;;5.60;4.70;;;;;;;;;;5073435;28;20483;-68
2023/07/01 02:22:32;;;;;;;5.67;4.30;;;;;;;;;;5076845;28;20452;-68
2023/07/01 02:25:00;;;;;;;3.90;3.60;;;;;;;;;;5076422;28;20446;-68
2023/07/01 02:27:30;;;;;;;5.20;4.70;;;;;;;;;;5076204;28;20450;-68
2023/07/01 02:29:57;;;;;;;6.37;4.40;;;;;;;;;;5076454;28;20904;-68
2023/07/01 02:32:24;;;;;;;6.53;4.10;;;;;;;;;;5076500;28;20485;-68
2023/07/01 02:34:52;;;;;;;5.40;4.87;;;;;;;;;;5076388;28;20443;-68
2023/07/01 02:37:20;;;;;;;7.93;4.80;;;;;;;;;;5076075;28;20956;-67
2023/07/01 02:39:47;;;;;;;6.73;5.20;;;;;;;;;;5076101;28;20446;-67
2023/07/01 02:42:19;;;;;;;7.13;4.20;;;;;;;;;;5076647;28;20438;-67
2023/07/01 02:44:46;;;;;;;8.03;4.10;;;;;;;;;;5076187;28;20427;-67
2023/07/01 02:47:13;;;;;;;6.70;3.90;;;;;;;;;;5076178;28;20455;-68
2023/07/01 02:49:41;;;;;;;4.77;4.17;;;;;;;;;;5075674;28;20450;-68
2023/07/01 02:52:09;;;;;;;5.80;4.17;;;;;;;;;;5076162;28;20435;-67
2023/07/01 02:54:39;;;;;;;3.80;3.47;;;;;;;;;;5086790;28;20439;-68
2023/07/01 02:57:07;;;;;;;4.17;3.80;;;;;;;;;;5095099;28;20514;-67
2023/07/01 02:59:35;;;;;;;4.77;3.60;;;;;;;;;;5095052;28;20440;-67
2023/07/01 03:02:02;;;;;;;4.67;4.27;;;;;;;;;;5095291;28;20456;-68
2023/07/01 03:04:29;;;;;;;6.00;3.80;;;;;;;;;;5095091;28;20452;-67
2023/07/01 03:06:57;;;;;;;4.83;3.90;;;;;;;;;;5095359;28;20452;-68
2023/07/01 03:09:24;;;;;;;4.70;4.23;;;;;;;;;;5095454;28;20846;-68
2023/07/01 03:11:53;;;;;;;5.40;3.87;;;;;;;;;;5095793;28;20438;-68
2023/07/01 03:14:20;;;;;;;5.43;3.57;;;;;;;;;;5095294;28;20471;-68
2023/07/01 03:16:49;;;;;;;8.47;5.00;;;;;;;;;;5095427;28;20534;-67
2023/07/01 03:19:17;;;;;;;4.30;3.90;;;;;;;;;;5096078;28;20445;-68
2023/07/01 03:21:45;;;;;;;3.67;3.37;;;;;;;;;;5095633;28;20471;-67
2023/07/01 03:24:12;;;;;;;4.40;3.97;;;;;;;;;;5095300;28;20885;-67
2023/07/01 03:26:39;;;;;;;5.23;3.70;;;;;;;;;;5095475;28;20788;-68
2023/07/01 03:29:08;;;;;;;3.93;3.10;;;;;;;;;;5095236;28;20949;-68
2023/07/01 03:31:35;;;;;;;3.73;3.30;;;;;;;;;;5094795;28;20930;-68
2023/07/01 03:34:02;;;;;;;3.93;3.50;;;;;;;;;;5095080;28;20850;-69
2023/07/01 03:36:30;;;;;;;4.63;4.23;;;;;;;;;;5095311;28;20449;-67
2023/07/01 03:38:58;;;;;;;7.30;3.50;;;;;;;;;;5095001;28;20442;-68
2023/07/01 03:41:26;;;;;;;3.97;3.57;;;;;;;;;;5095177;28;20442;-68
2023/07/01 03:43:53;;;;;;;3.80;3.27;;;;;;;;;;5095776;28;20435;-68
2023/07/01 03:46:21;;;;;;;4.30;3.30;;;;;;;;;;5094904;28;20450;-68
2023/07/01 03:48:48;;;;;;;5.70;3.40;;;;;;;;;;5094283;28;20440;-69
2023/07/01 03:51:16;;;;;;;6.23;4.07;;;;;;;;;;5094337;28;20485;-69
2023/07/01 03:53:43;;;;;;;3.90;3.57;;;;;;;;;;5094377;28;20465;-68
2023/07/01 03:56:10;;;;;;;3.57;3.27;;;;;;;;;;5094531;28;20438;-67
2023/07/01 03:58:37;;;;;;;5.40;3.33;;;;;;;;;;5095338;28;20443;-68
2023/07/01 04:01:05;;;;;;;4.20;3.50;;;;;;;;;;5095035;28;20456;-67
2023/07/01 04:03:35;;;;;;;4.83;3.70;;;;;;;;;;5094301;28;20946;-68
2023/07/01 04:06:02;;;;;;;6.13;3.30;;;;;;;;;;5094365;28;20453;-68
2023/07/01 04:08:30;;;;;;;9.50;3.30;;;;;;;;;;5094789;28;20446;-68
2023/07/01 04:10:57;;;;;;;4.30;3.37;;;;;;;;;;5094219;28;20455;-68
2023/07/01 04:13:24;;;;;;;3.53;3.20;;;;;;;;;;5093930;28;20987;-68
2023/07/01 04:15:51;;;;;;;4.77;2.80;;;;;;;;;;5094047;28;20454;-68
2023/07/01 04:18:19;;;;;;;4.47;3.60;;;;;;;;;;5094593;28;20445;-67
2023/07/01 04:20:47;;;;;;;4.43;3.20;;;;;;;;;;5094316;28;20478;-69
2023/07/01 04:23:14;;;;;;;4.40;3.20;;;;;;;;;;5094155;28;20445;-69
2023/07/01 04:25:41;;;;;;;4.00;3.00;;;;;;;;;;5093943;28;20449;-69
2023/07/01 04:28:09;;;;;;;3.43;3.13;;;;;;;;;;5094305;28;20802;-67
2023/07/01 04:30:36;;;;;;;4.00;3.33;;;;;;;;;;5093952;28;20445;-68
2023/07/01 04:33:03;;;;;;;5.03;3.30;;;;;;;;;;5094263;28;20489;-68
2023/07/01 04:35:30;;;;;;;3.80;3.50;;;;;;;;;;5093825;28;20448;-68
2023/07/01 04:37:59;;;;;;;3.60;3.30;;;;;;;;;;5093914;28;20446;-68
2023/07/01 04:40:26;;;;;;;3.80;3.10;;;;;;;;;;5093798;28;20469;-68
2023/07/01 04:42:53;;;;;;;3.43;3.13;;;;;;;;;;5092971;28;20946;-68
2023/07/01 04:45:21;;;;;;;4.20;3.57;;;;;;;;;;5094031;28;20534;-67
2023/07/01 04:47:48;;;;;;;3.40;3.10;;;;;;;;;;5093960;28;20774;-68
2023/07/01 04:50:15;;;;;;;4.07;3.60;;;;;;;;;;5093955;28;20457;-67
2023/07/01 04:52:43;;;;;;;11.07;3.10;;;;;;;;;;5093428;28;20438;-68
2023/07/01 04:55:12;;;;;;;5.00;3.13;;;;;;;;;;5093573;28;20446;-68
2023/07/01 04:57:39;;;;;;;3.27;2.90;;;;;;;;;;5093463;28;20446;-68
2023/07/01 05:00:10;;;;;;;3.60;3.10;;;;;;;;;;5093533;28;20449;-67
2023/07/01 05:02:37;;;;;;;3.73;3.30;;;;;;;;;;5093843;28;20430;-68
2023/07/01 05:05:05;;;;;;;7.07;3.43;;;;;;;;;;5093753;28;20460;-67
2023/07/01 05:07:32;;;;;;;4.23;3.40;;;;;;;;;;5093551;28;20463;-67
2023/07/01 05:09:59;;;;;;;5.50;3.20;;;;;;;;;;5094017;28;20442;-67
2023/07/01 05:12:27;;;;;;;4.43;3.30;;;;;;;;;;5093622;28;20447;-67
2023/07/01 05:14:55;;;;;;;7.73;3.53;;;;;;;;;;5093647;28;20485;-68
2023/07/01 05:17:22;;;;;;;3.83;3.40;;;;;;;;;;5093395;28;20446;-68
2023/07/01 05:19:49;;;;;;;3.57;3.00;;;;;;;;;;5093557;28;20553;-67
2023/07/01 05:22:16;;;;;;;4.43;3.43;;;;;;;;;;5093869;28;20466;-67
2023/07/01 05:24:43;;;;;;;4.50;3.10;;;;;;;;;;5093368;28;20446;-67
2023/07/01 05:27:11;;;;;;;4.37;3.33;;;;;;;;;;5093305;28;20867;-67
2023/07/01 05:29:39;;;;;;;10.13;3.73;;;;;;;;;;5093418;28;20447;-68
2023/07/01 05:32:07;;;;;;;6.40;3.07;;;;;;;;;;5093552;28;20442;-67
2023/07/01 05:34:34;;;;;;;5.07;3.20;;;;;;;;;;5093152;28;20486;-68
2023/07/01 05:37:01;;;;;;;7.40;3.50;;;;;;;;;;5092825;28;20493;-68
2023/07/01 05:39:30;;;;;;;5.57;3.30;;;;;;;;;;5093164;28;20464;-68
2023/07/01 05:41:57;;;;;;;3.40;3.10;;;;;;;;;;5093462;28;20795;-68
2023/07/01 05:44:25;;;;;;;3.10;2.80;;;;;;;;;;5093326;28;20452;-68
2023/07/01 05:46:53;;;;;;;3.83;2.90;;;;;;;;;;5092913;28;20944;-68
2023/07/01 05:49:21;;;;;;;4.17;3.17;;;;;;;;;;5093145;28;20451;-68
2023/07/01 05:51:48;;;;;;;4.47;3.27;;;;;;;;;;5093376;28;20470;-68
2023/07/01 05:54:15;;;;;;;4.40;3.53;;;;;;;;;;5094025;28;20475;-67
2023/07/01 05:56:43;;;;;;;3.33;2.60;;;;;;;;;;5096803;28;20435;-68
2023/07/01 05:59:10;;;;;;;3.30;3.00;;;;;;;;;;5097257;28;20807;-68
2023/07/01 06:01:37;;;;;;;3.40;3.10;;;;;;;;;;5097183;28;20821;-67
2023/07/01 06:04:06;;;;;;;3.80;3.50;;;;;;;;;;5097322;28;20446;-67
2023/07/01 06:06:33;;;;;;;4.03;2.97;;;;;;;;;;5096764;28;20455;-67
2023/07/01 06:09:00;;;;;;;3.90;3.13;;;;;;;;;;5096709;28;20953;-66
2023/07/01 06:11:28;;;;;;;6.23;3.60;;;;;;;;;;5096887;28;20790;-67
2023/07/01 06:13:55;;;;;;;4.33;3.00;;;;;;;;;;5096868;28;20587;-67
2023/07/01 06:16:23;;;;;;;4.40;3.07;;;;;;;;;;5097125;28;20452;-67
2023/07/01 06:18:50;;;;;;;7.50;3.40;;;;;;;;;;5096981;28;20439;-67
2023/07/01 06:21:19;;;;;;;5.00;3.60;;;;;;;;;;5097019;28;20470;-67
2023/07/01 06:23:46;;;;;;;3.50;2.70;;;;;;;;;;5096592;28;20842;-67
2023/07/01 06:26:14;;;;;;;4.23;3.43;;;;;;;;;;5096663;28;20928;-67
2023/07/01 06:28:41;;;;;;;8.03;3.30;;;;;;;;;;5096573;28;20814;-68
2023/07/01 06:31:08;;;;;;;4.27;3.20;;;;;;;;;;5096674;28;20468;-71
2023/07/01 06:33:38;;;;;;;5.63;2.97;;;;;;;;;;5096502;28;20568;-68
2023/07/01 06:36:05;;;;;;;4.60;3.10;;;;;;;;;;5096228;28;20475;-67
2023/07/01 06:38:34;;;;;;;4.70;3.50;;;;;;;;;;5096663;28;20451;-68
2023/07/01 06:41:01;;;;;;;5.00;2.97;;;;;;;;;;5096442;28;20502;-67
2023/07/01 06:43:28;;;;;;;5.07;3.40;;;;;;;;;;5096254;28;20531;-67
2023/07/01 06:45:55;;;;;;;3.97;2.87;;;;;;;;;;5096799;28;20442;-67
2023/07/01 06:48:23;;;;;;;3.93;2.80;;;;;;;;;;5095831;28;20554;-66
2023/07/01 06:50:50;;;;;;;5.40;3.10;;;;;;;;;;5096232;28;20782;-71
2023/07/01 06:53:17;;;;;;;4.70;3.37;;;;;;;;;;5095521;28;20536;-68
2023/07/01 06:55:46;;;;;;;4.23;2.80;;;;;;;;;;5095785;28;20438;-68
2023/07/01 06:58:13;;;;;;;5.23;3.00;;;;;;;;;;5095648;28;20441;-68
2023/07/01 07:00:41;;;;;;;3.47;3.10;;;;;;;;;;5095754;28;20449;-68
2023/07/01 07:03:10;;;;;;;3.27;2.97;;;;;;;;;;5095941;28;20779;-69
2023/07/01 07:05:37;;;;;;;4.90;3.30;;;;;;;;;;5094745;28;20441;-67
2023/07/01 07:08:04;;;;;;;5.40;3.23;;;;;;;;;;5096083;28;20445;-68
2023/07/01 07:10:31;;;;;;;4.93;3.00;;;;;;;;;;5095546;28;20931;-68
2023/07/01 07:13:00;;;;;;;3.80;3.33;;;;;;;;;;5095819;28;20504;-68
2023/07/01 07:15:27;;;;;;;5.83;3.23;;;;;;;;;;5095304;28;20478;-68
2023/07/01 07:17:54;;;;;;;3.40;2.90;;;;;;;;;;5095357;28;20460;-69
2023/07/01 07:20:22;;;;;;;6.00;4.10;;;;;;;;;;5095787;28;20484;-69
2023/07/01 07:22:49;;;;;;;4.70;3.90;;;;;;;;;;5095827;28;20503;-67
2023/07/01 07:25:16;;;;;;;8.10;3.93;;;;;;;;;;5095327;28;20447;-68
2023/07/01 07:27:44;;;;;;;8.20;4.50;;;;;;;;;;5095512;28;20494;-68
2023/07/01 07:30:13;;;;;;;5.23;3.87;;;;;;;;;;5094769;28;20437;-69
2023/07/01 07:32:40;;;;;;;4.50;4.10;;;;;;;;;;5095346;28;20441;-68
2023/07/01 07:35:08;;;;;;;4.13;3.73;;;;;;;;;;5094939;28;20483;-68
2023/07/01 07:37:36;;;;;;;3.90;3.33;;;;;;;;;;5095273;28;20444;-68
2023/07/01 07:40:05;;;;;;;5.80;3.27;;;;;;;;;;5095222;28;20454;-68
2023/07/01 07:42:32;;;;;;;3.30;3.00;;;;;;;;;;5094900;28;20461;-68
2023/07/01 07:44:59;;;;;;;3.90;3.50;;;;;;;;;;5094798;28;20461;-68
2023/07/01 07:47:28;;;;;;;4.70;3.53;;;;;;;;;;5095101;28;20810;-69
2023/07/01 07:49:55;;;;;;;6.23;3.23;;;;;;;;;;5094519;28;20961;-69
2023/07/01 07:52:22;;;;;;;6.03;3.17;;;;;;;;;;5095064;28;20925;-68
2023/07/01 07:54:49;;;;;;;7.43;3.03;;;;;;;;;;5094905;28;20480;-68
2023/07/01 07:57:17;;;;;;;5.70;3.43;;;;;;;;;;5094741;28;20474;-69
2023/07/01 07:59:44;;;;;;;4.07;2.87;;;;;;;;;;5094308;28;20443;-68
2023/07/01 08:02:11;;;;;;;8.73;3.10;;;;;;;;;;5095180;28;20443;-68
2023/07/01 08:04:43;;;;;;;3.23;2.93;;;;;;;;;;5094859;28;20800;-67
2023/07/01 08:07:12;;;;;;;4.10;3.67;;;;;;;;;;5094590;28;20426;-68
2023/07/01 08:09:39;;;;;;;4.13;3.70;;;;;;;;;;5095033;28;20447;-67
2023/07/01 08:12:07;;;;;;;3.50;3.20;;;;;;;;;;5094737;28;20514;-68
2023/07/01 08:14:34;;;;;;;6.20;3.87;;;;;;;;;;5094566;28;20805;-68
2023/07/01 08:17:01;;;;;;;3.70;3.40;;;;;;;;;;5094993;28;20446;-69
2023/07/01 08:19:29;;;;;;;4.53;3.40;;;;;;;;;;5094450;28;20443;-68
2023/07/01 08:21:56;;;;;;;3.53;3.10;;;;;;;;;;5094691;28;20489;-68
2023/07/01 08:24:25;;;;;;;3.60;3.30;;;;;;;;;;5094099;28;20448;-68
2023/07/01 08:26:52;;;;;;;4.47;3.50;;;;;;;;;;5094241;28;20561;-68
2023/07/01 08:29:19;;;;;;;4.60;3.97;;;;;;;;;;5094488;28;20868;-68
2023/07/01 08:31:46;;;;;;;5.00;4.00;;;;;;;;;;5094310;28;20450;-68
2023/07/01 08:34:14;;;;;;;4.37;3.10;;;;;;;;;;5094247;28;20485;-68
2023/07/01 08:36:41;;;;;;;4.27;3.87;;;;;;;;;;5094083;28;20442;-68
2023/07/01 08:39:08;;;;;;;7.63;4.10;;;;;;;;;;5093937;28;20925;-69
2023/07/01 08:41:40;;;;;;;5.73;3.80;;;;;;;;;;5094276;28;20443;-68
2023/07/01 08:44:07;;;;;;;4.80;4.40;;;;;;;;;;5092737;28;20804;-69
2023/07/01 08:46:34;;;;;;;5.43;4.20;;;;;;;;;;5093470;28;20443;-69
2023/07/01 08:49:02;;;;;;;5.57;4.30;;;;;;;;;;5093897;28;20436;-69
2023/07/01 08:51:32;;;;;;;9.47;4.00;;;;;;;;;;5094100;28;20445;-68
2023/07/01 08:54:00;;;;;;;5.20;3.63;;;;;;;;;;5093858;28;20766;-69
2023/07/01 08:56:28;;;;;;;6.53;4.03;;;;;;;;;;5093410;28;20438;-68
2023/07/01 08:58:56;;;;;;;6.50;4.43;;;;;;;;;;5093636;28;20452;-68
2023/07/01 09:01:23;;;;;;;4.33;3.90;;;;;;;;;;5075080;28;20517;-68
2023/07/01 09:03:51;;;;;;;8.13;3.93;;;;;;;;;;5073315;28;20449;-69
2023/07/01 09:06:20;;;;;;;4.97;3.80;;;;;;;;;;5073397;28;20532;-69
2023/07/01 09:08:47;;;;;;;7.00;4.10;;;;;;;;;;5073564;28;20445;-68
2023/07/01 09:11:15;;;;;;;5.53;5.10;;;;;;;;;;5073489;28;20450;-69
2023/07/01 09:13:43;;;;;;;6.80;3.57;;;;;;;;;;5073388;28;20547;-69
2023/07/01 09:16:12;;;;;;;4.50;4.10;;;;;;;;;;5073467;28;20569;-69
2023/07/01 09:18:43;;;;;;;4.07;3.67;;;;;;;;;;5073026;28;20447;-68
2023/07/01 09:21:18;;;;;;;3.93;3.53;;;;;;;;;;5072730;28;20470;-69
2023/07/01 09:23:45;;;;;;;4.47;4.07;;;;;;;;;;5073029;28;20432;-68
2023/07/01 09:26:14;;;;;;;5.07;4.50;;;;;;;;;;5073224;28;20459;-68
2023/07/01 09:28:42;;;;;;;4.43;4.13;;;;;;;;;;5072803;28;20443;-68
2023/07/01 09:31:10;;;;;;;5.60;4.90;;;;;;;;;;5073378;28;20439;-69
2023/07/01 09:33:40;;;;;;;5.17;4.67;;;;;;;;;;5072752;28;20931;-69
2023/07/01 09:36:09;;;;;;;8.07;4.63;;;;;;;;;;5072694;28;20481;-69
2023/07/01 09:38:51;;;;;;;4.67;4.13;;;;;;;;;;5073082;28;20540;-70
2023/07/01 09:41:19;;;;;;;6.77;3.97;;;;;;;;;;5073345;28;20433;-69
2023/07/01 09:43:46;;;;;;;5.07;4.60;;;;;;;;;;5087625;28;20438;-69
2023/07/01 09:46:13;;;;;;;4.17;3.73;;;;;;;;;;5093337;28;20898;-69
2023/07/01 09:48:51;;;;;;;5.30;4.80;;;;;;;;;;5093275;28;20434;-69
2023/07/01 09:51:18;;;;;;;5.03;4.00;;;;;;;;;;5093589;28;20809;-70
2023/07/01 09:53:46;;;;;;;8.80;4.67;;;;;;;;;;5093152;28;20793;-69
2023/07/01 09:56:15;;;;;;;5.50;4.73;;;;;;;;;;5093040;28;20477;-69
2023/07/01 09:58:43;;;;;;;4.17;3.90;;;;;;;;;;5093210;28;20442;-69
2023/07/01 10:01:10;;;;;;;6.20;4.03;;;;;;;;;;5093012;28;20448;-68
2023/07/01 10:03:37;;;;;;;5.87;3.73;;;;;;;;;;5093108;28;20446;-69
2023/07/01 10:06:06;;;;;;;4.33;3.90;;;;;;;;;;5092678;28;20435;-69
2023/07/01 10:08:34;;;;;;;6.37;3.37;;;;;;;;;;5092617;28;20438;-69
2023/07/01 10:11:03;;;;;;;4.00;3.60;;;;;;;;;;5092697;28;20451;-69
2023/07/01 10:13:33;;;;;;;2.80;2.60;;;;;;;;;;5092773;28;20470;-68
2023/07/01 10:16:02;;;;;;;3.33;3.13;;;;;;;;;;5092816;28;20478;-68
2023/07/01 10:18:30;;;;;;;3.80;3.23;;;;;;;;;;5092547;28;20992;-69
2023/07/01 10:21:23;;;;;;;4.37;3.50;;;;;;;;;;5092412;28;20481;-69
2023/07/01 10:23:52;;;;;;;3.53;3.10;;;;;;;;;;5092399;28;20445;-70
2023/07/01 10:26:37;;;;;;;2.93;2.73;;;;;;;;;;5092472;28;20448;-69
2023/07/01 10:29:20;;;;;;;8.13;4.10;;;;;;;;;;5093478;28;20458;-69
2023/07/01 10:32:02;;;;;;;3.80;3.40;;;;;;;;;;5059971;28;20864;-69
2023/07/01 10:34:44;;;;;;;3.30;3.00;;;;;;;;;;5092516;28;20441;-68
2023/07/01 10:37:12;;;;;;;4.03;3.50;;;;;;;;;;5092433;28;20457;-69
2023/07/01 10:39:40;;;;;;;3.53;3.23;;;;;;;;;;5092851;28;20451;-69
2023/07/01 10:42:12;;;;;;;3.53;3.23;;;;;;;;;;5095344;28;20445;-69
2023/07/01 10:44:39;;;;;;;5.80;3.37;;;;;;;;;;5096623;28;20435;-68
2023/07/01 10:47:15;;;;;;;3.37;3.07;;;;;;;;;;5096404;28;20445;-69
2023/07/01 10:50:02;;;;;;;3.77;3.23;;;;;;;;;;5096337;28;20448;-69
2023/07/01 10:52:29;;;;;;;3.73;2.67;;;;;;;;;;5096333;28;20527;-69
2023/07/01 10:54:59;;;;;;;3.90;3.40;;;;;;;;;;5095932;28;20474;-69
2023/07/01 10:57:26;;;;;;;2.93;2.73;;;;;;;;;;5096129;28;20492;-68
2023/07/01 11:00:13;;;;;;;2.83;2.63;;;;;;;;;;5096425;28;20959;-69
2023/07/01 11:02:41;;;;;;;3.70;3.40;;;;;;;;;;5096074;28;20533;-72
2023/07/01 11:05:09;;;;;;;3.77;3.37;;;;;;;;;;5096196;28;20449;-68
2023/07/01 11:07:41;;;;;;;3.57;3.23;;;;;;;;;;5095652;28;20448;-69
2023/07/01 11:10:10;;;;;;;3.50;3.30;;;;;;;;;;5096475;28;20453;-69
2023/07/01 11:12:38;;;;;;;4.03;3.70;;;;;;;;;;5096118;28;20447;-69
2023/07/01 11:15:05;;;;;;;4.53;4.13;;;;;;;;;;5095902;28;20485;-69
2023/07/01 11:17:32;;;;;;;3.70;3.40;;;;;;;;;;5096036;28;20466;-69
2023/07/01 11:20:00;;;;;;;4.60;4.20;;;;;;;;;;5096001;28;20478;-69
2023/07/01 11:22:27;;;;;;;5.10;4.33;;;;;;;;;;5095789;28;20421;-69
2023/07/01 11:25:03;;;;;;;4.30;4.00;;;;;;;;;;5095423;28;20446;-69
2023/07/01 11:27:32;;;;;;;5.40;4.20;;;;;;;;;;5095835;28;20811;-69
2023/07/01 11:29:59;;;;;;;5.10;4.70;;;;;;;;;;5095635;28;20530;-69
2023/07/01 11:32:26;;;;;;;4.73;4.43;;;;;;;;;;5095489;28;20438;-69
2023/07/01 11:34:58;;;;;;;4.70;4.40;;;;;;;;;;5095494;28;20455;-68
2023/07/01 11:37:25;;;;;;;5.27;4.87;;;;;;;;;;5095520;28;20787;-69
2023/07/01 11:39:52;;;;;;;5.43;5.03;;;;;;;;;;5095748;28;20466;-69
2023/07/01 11:42:20;;;;;;;4.80;4.40;;;;;;;;;;5095351;28;20836;-69
2023/07/01 11:44:48;;;;;;;4.90;4.30;;;;;;;;;;5095521;28;20460;-69
2023/07/01 11:47:16;;;;;;;4.50;4.20;;;;;;;;;;5095318;28;20448;-69
2023/07/01 11:49:44;;;;;;;5.10;4.70;;;;;;;;;;5094980;28;21003;-69
2023/07/01 11:52:11;;;;;;;5.23;4.83;;;;;;;;;;5094808;28;20784;-69
2023/07/01 11:54:45;;;;;;;4.93;4.63;;;;;;;;;;5093900;28;20445;-69
2023/07/01 11:57:14;;;;;;;5.43;5.03;;;;;;;;;;5094616;28;20494;-69
2023/07/01 11:59:41;;;;;;;4.87;4.47;;;;;;;;;;5094791;28;20501;-70
2023/07/01 12:02:10;;;;;;;4.80;4.50;;;;;;;;;;5094532;28;20452;-70
2023/07/01 12:04:37;;;;;;;5.17;4.87;;;;;;;;;;5094739;28;20496;-69
2023/07/01 12:07:08;;;;;;;4.67;4.37;;;;;;;;;;5094172;28;20447;-70
2023/07/01 12:09:36;;;;;;;5.27;4.77;;;;;;;;;;5094131;28;20946;-70
2023/07/01 12:12:03;;;;;;;4.90;4.60;;;;;;;;;;5094556;28;20447;-70
2023/07/01 12:14:30;;;;;;;4.80;4.50;;;;;;;;;;5094680;28;20434;-70
2023/07/01 12:16:58;;;;;;;5.43;5.13;;;;;;;;;;5094452;28;20483;-70
2023/07/01 12:19:26;;;;;;;5.20;4.90;;;;;;;;;;5094433;28;20442;-69
2023/07/01 12:21:55;;;;;;;4.70;4.40;;;;;;;;;;5094370;28;20580;-69
2023/07/01 12:24:23;;;;;;;5.73;5.33;;;;;;;;;;5094251;28;20454;-69
2023/07/01 12:26:50;;;;;;;4.80;4.40;;;;;;;;;;5094047;28;20936;-68
2023/07/01 12:29:18;;;;;;;5.80;5.30;;;;;;;;;;5093917;28;20445;-68
2023/07/01 12:31:45;;;;;;;5.63;5.23;;;;;;;;;;5094062;28;20516;-68
2023/07/01 12:34:13;;;;;;;6.07;5.47;;;;;;;;;;5093797;28;20499;-68
2023/07/01 12:36:43;;;;;;;5.40;5.00;;;;;;;;;;5093660;28;20994;-68
2023/07/01 12:39:10;;;;;;;4.60;4.30;;;;;;;;;;5093992;28;20436;-67
2023/07/01 12:41:38;;;;;;;5.00;4.50;;;;;;;;;;5093788;28;20439;-67
2023/07/01 12:44:05;;;;;;;4.73;4.43;;;;;;;;;;5093499;28;20961;-67
2023/07/01 12:46:33;;;;;;;4.63;4.33;;;;;;;;;;5093596;28;20943;-67
2023/07/01 12:49:02;;;;;;;4.90;4.60;;;;;;;;;;5093898;28;20464;-67
2023/07/01 12:51:29;;;;;;;4.63;4.33;;;;;;;;;;5094094;28;20801;-67
2023/07/01 12:53:59;;;;;;;4.07;3.77;;;;;;;;;;5093350;28;20443;-67
2023/07/01 12:56:26;;;;;;;5.17;4.77;;;;;;;;;;5093281;28;20471;-67
2023/07/01 12:58:53;;;;;;;4.53;4.17;;;;;;;;;;5093344;28;20458;-67
2023/07/01 13:01:21;;;;;;;9.67;5.03;;;;;;;;;;5093661;28;20439;-67
2023/07/01 13:03:48;;;;;;;4.40;4.10;;;;;;;;;;5092944;28;20436;-66
2023/07/01 13:06:26;;;;;;;4.70;4.30;;;;;;;;;;5093702;28;20450;-66
2023/07/01 13:08:54;;;;;;;4.20;4.00;;;;;;;;;;5093466;28;20443;-67
2023/07/01 13:11:23;;;;;;;4.67;4.27;;;;;;;;;;5093239;28;20948;-66
2023/07/01 13:13:52;;;;;;;5.27;4.77;;;;;;;;;;5093242;28;20525;-66
2023/07/01 13:16:29;;;;;;;5.90;5.50;;;;;;;;;;5093474;28;20474;-66
2023/07/01 13:18:56;;;;;;;7.17;6.57;;;;;;;;;;5093192;28;20425;-66
2023/07/01 13:21:23;;;;;;;7.83;7.13;;;;;;;;;;5092958;28;20481;-67
2023/07/01 13:23:54;;;;;;;7.60;7.00;;;;;;;;;;5093237;28;20467;-66
2023/07/01 13:26:22;;;;;;;6.90;6.40;;;;;;;;;;5093490;28;20780;-67
2023/07/01 13:28:50;;;;;;;8.20;7.50;;;;;;;;;;5093246;28;20867;-67
2023/07/01 13:31:24;;;;;;;8.90;8.20;;;;;;;;;;5093275;28;20456;-67
2023/07/01 13:33:51;;;;;;;8.77;8.07;;;;;;;;;;5093322;28;20446;-66
2023/07/01 13:36:19;;;;;;;8.67;7.90;;;;;;;;;;5092887;28;20477;-67
2023/07/01 13:38:49;;;;;;;10.17;9.47;;;;;;;;;;5093285;28;20446;-67
2023/07/01 13:41:17;;;;;;;10.83;9.97;;;;;;;;;;5093330;28;20444;-66
2023/07/01 13:43:45;;;;;;;11.03;10.03;;;;;;;;;;5092845;28;20935;-67
2023/07/01 13:46:12;;;;;;;11.00;9.30;;;;;;;;;;5093235;28;20452;-67
2023/07/01 13:48:42;;;;;;;10.93;9.97;;;;;;;;;;5093130;28;20440;-67
2023/07/01 13:51:09;;;;;;;10.97;9.97;;;;;;;;;;5093199;28;20541;-67
2023/07/01 13:53:37;;;;;;;10.40;9.60;;;;;;;;;;5093660;28;20443;-67
2023/07/01 13:56:04;;;;;;;11.50;10.50;;;;;;;;;;5092670;28;20568;-67
2023/07/01 13:58:31;;;;;;;11.50;10.67;;;;;;;;;;5093654;28;20795;-68
2023/07/01 14:01:00;;;;;;;10.57;9.77;;;;;;;;;;5092782;28;20924;-68
2023/07/01 14:03:42;;;;;;;11.77;10.80;;;;;;;;;;5093489;28;20450;-68
2023/07/01 14:06:10;;;;;;;11.47;10.60;;;;;;;;;;5093376;28;20896;-68
2023/07/01 14:08:37;;;;;;;11.07;10.17;;;;;;;;;;5092843;28;20921;-68
2023/07/01 14:11:04;;;;;;;12.13;11.20;;;;;;;;;;5093109;28;20465;-69
2023/07/01 14:13:31;;;;;;;11.40;10.50;;;;;;;;;;5092724;28;20440;-68
2023/07/01 14:16:00;;;;;;;12.13;11.07;;;;;;;;;;5095411;28;20521;-69
2023/07/01 14:18:28;;;;;;;12.03;11.10;;;;;;;;;;5096429;28;20446;-69
2023/07/01 14:20:58;;;;;;;11.60;10.70;;;;;;;;;;5096652;28;20467;-69
2023/07/01 14:23:25;;;;;;;11.77;10.87;;;;;;;;;;5095862;28;20465;-70
2023/07/01 14:25:53;;;;;;;11.87;10.97;;;;;;;;;;5096214;28;20444;-69
2023/07/01 14:28:21;;;;;;;11.80;10.57;;;;;;;;;;5096653;28;20871;-69
2023/07/01 14:31:08;;;;;;;10.90;10.10;;;;;;;;;;5096413;28;20447;-69
2023/07/01 14:33:37;;;;;;;10.67;9.87;;;;;;;;;;5096084;28;20448;-70
2023/07/01 14:36:05;;;;;;;10.17;9.47;;;;;;;;;;5095870;28;20968;-69
2023/07/01 14:38:39;;;;;;;9.93;8.93;;;;;;;;;;5096014;28;20444;-69
2023/07/01 14:41:13;;;;;;;8.53;7.93;;;;;;;;;;5096088;28;20588;-68
2023/07/01 14:43:41;;;;;;;8.50;7.90;;;;;;;;;;5096176;28;20518;-69
2023/07/01 14:46:08;;;;;;;7.57;7.03;;;;;;;;;;5096184;28;20457;-69
2023/07/01 14:48:37;;;;;;;7.53;6.93;;;;;;;;;;5096176;28;20440;-69